»·PEaware :: N235B KSNA-KBUR

N235B :: KSNA-KBUR

FLIGHT INFORMATION

Flight Status: Arrived
Operator: Privately registered:
United States
More flights under this callsign
Pilot: Jason D. (29273)
Aircraft: ECLIPSE 500
(EA50)
More flights by this aircraft type
Origin: KSNA John Wayne-Orange Co
United States
Destination: KBUR Bob Hope-Burbank
United States
More flights between these airports :: More routes between these airports
Route: +SLI V23 LAX LAX316R SILEX
File this flight plan on PilotEdge
Remarks:
Altitude:
(Current/Filed)
6,000ft
Speed:
(Current/Filed)
250kts
Departed: 18-Aug-20 06:36 PM
Arrived: 18-Aug-20 07:11 PM
Distance/Time
Traveled:
40nm/0:35
Distance/Time
To Go:
Arrived

Flight Plot

Page will automatically refresh every two minutes.


Map Options




Map Legend


Flown Route
Filed Route
Departure Airport
Arrival Airport
Navaid (VOR, NDB)
Fix

Horizontal Profiles

Position Reports

Time Latitude Longitude Heading Altitude Ground
Speed
18-Aug-20 18:17 33.675613 -117.871075 40 59ft 0kts
18-Aug-20 18:18 33.675613 -117.871075 40 59ft 0kts
18-Aug-20 18:19 33.675613 -117.871075 40 59ft 0kts
18-Aug-20 18:20 33.675613 -117.871075 40 59ft 0kts
18-Aug-20 18:21 33.675613 -117.871075 40 59ft 0kts
18-Aug-20 18:22 33.675613 -117.871075 40 59ft 0kts
18-Aug-20 18:23 33.675613 -117.871075 40 59ft 0kts
18-Aug-20 18:24 33.675613 -117.871075 40 59ft 0kts
18-Aug-20 18:25 33.675613 -117.871075 40 59ft 0kts
18-Aug-20 18:26 33.675613 -117.871075 40 59ft 0kts
18-Aug-20 18:27 33.675613 -117.871075 40 59ft 0kts
18-Aug-20 18:28 33.675613 -117.871075 40 59ft 0kts
18-Aug-20 18:29 33.675613 -117.871075 40 59ft 0kts
18-Aug-20 18:30 33.675613 -117.871075 40 59ft 0kts
18-Aug-20 18:31 33.675613 -117.871075 40 59ft 0kts
18-Aug-20 18:32 33.678246 -117.868709 28 59ft 22kts
18-Aug-20 18:33 33.681910 -117.866119 96 59ft 0kts
18-Aug-20 18:34 33.681910 -117.866119 96 59ft 0kts
18-Aug-20 18:35 33.668632 -117.873223 206 190ft 147kts
18-Aug-20 18:36 33.636308 -117.878457 186 2932ft 99kts
18-Aug-20 18:37 33.591798 -117.882875 179 3624ft 183kts
18-Aug-20 18:38 33.543037 -117.906315 239 3564ft 209kts
18-Aug-20 18:39 33.573874 -117.970155 310 3484ft 253kts
18-Aug-20 18:40 33.625370 -118.038251 310 4293ft 280kts
18-Aug-20 18:41 33.681542 -118.102501 316 5531ft 282kts
18-Aug-20 18:42 33.739760 -118.167267 316 5982ft 286kts
18-Aug-20 18:43 33.798245 -118.231844 316 5977ft 284kts
18-Aug-20 18:44 33.843713 -118.307740 299 5978ft 281kts
18-Aug-20 18:45 33.893632 -118.380267 313 5985ft 282kts
18-Aug-20 18:46 33.953253 -118.442296 330 5992ft 286kts
18-Aug-20 18:47 34.023174 -118.488887 330 5990ft 285kts
18-Aug-20 18:48 34.092636 -118.535378 330 5999ft 285kts
18-Aug-20 18:49 34.160618 -118.581219 330 5821ft 259kts
18-Aug-20 18:50 34.214860 -118.585006 69 4802ft 212kts
18-Aug-20 18:51 34.209489 -118.520306 114 3786ft 201kts
18-Aug-20 18:52 34.196700 -118.460383 90 2979ft 146kts
18-Aug-20 18:53 34.199162 -118.408941 93 2240ft 163kts
18-Aug-20 18:54 34.197202 -118.354682 90 1780ft 141kts
18-Aug-20 18:55 34.193088 -118.312507 110 2085ft 123kts
18-Aug-20 18:56 34.180186 -118.273850 150 2140ft 125kts
18-Aug-20 18:57 34.146456 -118.278787 231 2140ft 135kts
18-Aug-20 18:58 34.145970 -118.326578 269 2146ft 152kts
18-Aug-20 18:59 34.148016 -118.380416 269 2143ft 164kts
18-Aug-20 19:00 34.172903 -118.411283 353 2865ft 142kts
18-Aug-20 19:01 34.199082 -118.396371 93 3089ft 132kts
18-Aug-20 19:02 34.197096 -118.349120 125 1226ft 102kts
18-Aug-20 19:03 34.174083 -118.345369 183 1698ft 86kts
18-Aug-20 19:04 34.138508 -118.346330 177 1946ft 160kts
18-Aug-20 19:05 34.118731 -118.383518 241 3031ft 158kts
18-Aug-20 19:06 34.117525 -118.436124 277 3292ft 179kts
18-Aug-20 19:07 34.155105 -118.465716 344 3363ft 202kts
18-Aug-20 19:08 34.194052 -118.432790 80 2955ft 187kts
18-Aug-20 19:09 34.198068 -118.372065 94 943ft 160kts
18-Aug-20 19:10 34.201521 -118.345842 76 697ft 10kts

Navigation Log

Ident Type
Flight plan parsing failed, navigation log unavailable